sensor_id;sensor_type;location;lat;lon;timestamp;pressure;altitude;pressure_sealevel;temperature;humidity
12172;BME280;6149;52.418;13.668;2023-04-09T00:02:22;102251.31;;;1.30;100.00
12172;BME280;6149;52.418;13.668;2023-04-09T00:04:50;102246.91;;;1.25;100.00
12172;BME280;6149;52.418;13.668;2023-04-09T00:07:18;102253.81;;;1.21;100.00
12172;BME280;6149;52.418;13.668;2023-04-09T00:09:47;102246.81;;;1.17;100.00
12172;BME280;6149;52.418;13.668;2023-04-09T00:12:15;102249.47;;;1.20;100.00
12172;BME280;6149;52.418;13.668;2023-04-09T00:14:43;102245.09;;;1.19;100.00
12172;BME280;6149;52.418;13.668;2023-04-09T00:17:10;102246.84;;;1.19;100.00
12172;BME280;6149;52.418;13.668;2023-04-09T00:19:37;102246.84;;;1.19;100.00
12172;BME280;6149;52.418;13.668;2023-04-09T00:22:04;102242.50;;;1.18;100.00
12172;BME280;6149;52.418;13.668;2023-04-09T00:24:32;102244.16;;;1.13;100.00
12172;BME280;6149;52.418;13.668;2023-04-09T00:27:01;102254.56;;;1.08;100.00
12172;BME280;6149;52.418;13.668;2023-04-09T00:29:29;102254.50;;;1.05;100.00
12172;BME280;6149;52.418;13.668;2023-04-09T00:31:57;102253.63;;;1.05;100.00
12172;BME280;6149;52.418;13.668;2023-04-09T00:34:26;102257.94;;;1.03;100.00
12172;BME280;6149;52.418;13.668;2023-04-09T00:36:56;102251.78;;;0.96;100.00
12172;BME280;6149;52.418;13.668;2023-04-09T00:39:25;102255.19;;;0.92;100.00
12172;BME280;6149;52.418;13.668;2023-04-09T00:41:56;102249.91;;;0.86;100.00
12172;BME280;6149;52.418;13.668;2023-04-09T00:44:29;102242.03;;;0.81;100.00
12172;BME280;6149;52.418;13.668;2023-04-09T00:46:58;102243.66;;;0.75;100.00
12172;BME280;6149;52.418;13.668;2023-04-09T00:49:26;102241.94;;;0.72;100.00
12172;BME280;6149;52.418;13.668;2023-04-09T00:51:57;102244.47;;;0.68;100.00
12172;BME280;6149;52.418;13.668;2023-04-09T00:54:27;102243.63;;;0.69;100.00
12172;BME280;6149;52.418;13.668;2023-04-09T00:56:56;102248.81;;;0.67;100.00
12172;BME280;6149;52.418;13.668;2023-04-09T00:59:24;102240.09;;;0.65;100.00
12172;BME280;6149;52.418;13.668;2023-04-09T01:01:58;102242.69;;;0.65;100.00
12172;BME280;6149;52.418;13.668;2023-04-09T01:04:26;102234.84;;;0.62;100.00
12172;BME280;6149;52.418;13.668;2023-04-09T01:07:00;102234.78;;;0.59;100.00
12172;BME280;6149;52.418;13.668;2023-04-09T01:09:38;102226.88;;;0.51;100.00
12172;BME280;6149;52.418;13.668;2023-04-09T01:12:13;102238.13;;;0.49;100.00
12172;BME280;6149;52.418;13.668;2023-04-09T01:14:50;102242.41;;;0.45;100.00
12172;BME280;6149;52.418;13.668;2023-04-09T01:17:40;102231.09;;;0.43;100.00
12172;BME280;6149;52.418;13.668;2023-04-09T01:20:20;102234.53;;;0.41;100.00
12172;BME280;6149;52.418;13.668;2023-04-09T01:23:06;102234.44;;;0.33;100.00
12172;BME280;6149;52.418;13.668;2023-04-09T01:25:59;102243.91;;;0.29;100.00
12172;BME280;6149;52.418;13.668;2023-04-09T01:28:32;102247.31;;;0.25;100.00
12172;BME280;6149;52.418;13.668;2023-04-09T01:31:06;102241.28;;;0.28;100.00
12172;BME280;6149;52.418;13.668;2023-04-09T01:33:37;102240.38;;;0.24;100.00
12172;BME280;6149;52.418;13.668;2023-04-09T01:36:06;102242.03;;;0.21;100.00
12172;BME280;6149;52.418;13.668;2023-04-09T01:38:36;102248.94;;;0.19;100.00
12172;BME280;6149;52.418;13.668;2023-04-09T01:41:09;102244.56;;;0.16;100.00
12172;BME280;6149;52.418;13.668;2023-04-09T01:43:41;102240.25;;;0.17;100.00
12172;BME280;6149;52.418;13.668;2023-04-09T01:46:10;102234.97;;;0.12;100.00
12172;BME280;6149;52.418;13.668;2023-04-09T01:48:41;102241.00;;;0.10;100.00
12172;BME280;6149;52.418;13.668;2023-04-09T01:51:09;102244.41;;;0.07;100.00
12172;BME280;6149;52.418;13.668;2023-04-09T01:53:40;102246.97;;;0.04;100.00
12172;BME280;6149;52.418;13.668;2023-04-09T01:56:08;102241.72;;;0.03;100.00
12172;BME280;6149;52.418;13.668;2023-04-09T01:58:36;102251.28;;;0.04;100.00
12172;BME280;6149;52.418;13.668;2023-04-09T02:01:09;102246.94;;;0.03;100.00
12172;BME280;6149;52.418;13.668;2023-04-09T02:03:43;102250.38;;;0.02;100.00
12172;BME280;6149;52.418;13.668;2023-04-09T02:06:17;102249.56;;;0.04;100.00
12172;BME280;6149;52.418;13.668;2023-04-09T02:08:51;102251.25;;;0.02;100.00
12172;BME280;6149;52.418;13.668;2023-04-09T02:11:20;102246.88;;;-0.02;100.00
12172;BME280;6149;52.418;13.668;2023-04-09T02:13:53;102246.88;;;-0.02;100.00
12172;BME280;6149;52.418;13.668;2023-04-09T02:16:28;102247.69;;;-0.06;100.00
12172;BME280;6149;52.418;13.668;2023-04-09T02:18:58;102241.53;;;-0.11;100.00
12172;BME280;6149;52.418;13.668;2023-04-09T02:21:27;102246.69;;;-0.13;100.00
12172;BME280;6149;52.418;13.668;2023-04-09T02:23:57;102247.47;;;-0.18;100.00
12172;BME280;6149;52.418;13.668;2023-04-09T02:26:25;102241.34;;;-0.20;100.00
12172;BME280;6149;52.418;13.668;2023-04-09T02:28:55;102246.50;;;-0.23;100.00
12172;BME280;6149;52.418;13.668;2023-04-09T02:31:39;102244.69;;;-0.27;100.00
12172;BME280;6149;52.418;13.668;2023-04-09T02:34:07;102243.78;;;-0.29;100.00
12172;BME280;6149;52.418;13.668;2023-04-09T02:36:34;102243.75;;;-0.31;100.00
12172;BME280;6149;52.418;13.668;2023-04-09T02:39:02;102245.44;;;-0.33;100.00
12172;BME280;6149;52.418;13.668;2023-04-09T02:41:30;102246.31;;;-0.34;100.00
12172;BME280;6149;52.418;13.668;2023-04-09T02:43:58;102246.28;;;-0.36;100.00
12172;BME280;6149;52.418;13.668;2023-04-09T02:46:33;102242.81;;;-0.38;100.00
12172;BME280;6149;52.418;13.668;2023-04-09T02:49:00;102246.25;;;-0.39;100.00
12172;BME280;6149;52.418;13.668;2023-04-09T02:51:33;102243.63;;;-0.40;100.00
12172;BME280;6149;52.418;13.668;2023-04-09T02:54:01;102239.25;;;-0.43;100.00
12172;BME280;6149;52.418;13.668;2023-04-09T02:56:31;102245.31;;;-0.42;100.00
12172;BME280;6149;52.418;13.668;2023-04-09T02:58:59;102238.38;;;-0.43;100.00
12172;BME280;6149;52.418;13.668;2023-04-09T03:01:31;102246.13;;;-0.45;100.00
12172;BME280;6149;52.418;13.668;2023-04-09T03:03:59;102241.72;;;-0.49;100.00
12172;BME280;6149;52.418;13.668;2023-04-09T03:06:29;102241.72;;;-0.49;100.00
12172;BME280;6149;52.418;13.668;2023-04-09T03:08:57;102234.75;;;-0.51;100.00
12172;BME280;6149;52.418;13.668;2023-04-09T03:11:25;102234.72;;;-0.53;100.00
12172;BME280;6149;52.418;13.668;2023-04-09T03:13:55;102223.41;;;-0.55;100.00
12172;BME280;6149;52.418;13.668;2023-04-09T03:16:25;102223.38;;;-0.58;100.00
12172;BME280;6149;52.418;13.668;2023-04-09T03:18:58;102226.84;;;-0.57;100.00
12172;BME280;6149;52.418;13.668;2023-04-09T03:21:28;102230.31;;;-0.57;100.00
12172;BME280;6149;52.418;13.668;2023-04-09T03:23:56;102221.69;;;-0.54;100.00
12172;BME280;6149;52.418;13.668;2023-04-09T03:26:27;102226.00;;;-0.56;100.00
12172;BME280;6149;52.418;13.668;2023-04-09T03:29:02;102224.22;;;-0.59;100.00
12172;BME280;6149;52.418;13.668;2023-04-09T03:31:30;102229.41;;;-0.59;100.00
12172;BME280;6149;52.418;13.668;2023-04-09T03:34:03;102231.97;;;-0.60;100.00
12172;BME280;6149;52.418;13.668;2023-04-09T03:36:31;102231.03;;;-0.64;100.00
12172;BME280;6149;52.418;13.668;2023-04-09T03:38:59;102233.56;;;-0.67;100.00
12172;BME280;6149;52.418;13.668;2023-04-09T03:41:29;102225.78;;;-0.67;100.00
12172;BME280;6149;52.418;13.668;2023-04-09T03:43:56;102225.78;;;-0.67;100.00
12172;BME280;6149;52.418;13.668;2023-04-09T03:46:24;102227.47;;;-0.69;100.00
12172;BME280;6149;52.418;13.668;2023-04-09T03:48:55;102224.84;;;-0.71;100.00
12172;BME280;6149;52.418;13.668;2023-04-09T03:51:39;102229.16;;;-0.71;100.00
12172;BME280;6149;52.418;13.668;2023-04-09T03:54:07;102225.69;;;-0.72;100.00
12172;BME280;6149;52.418;13.668;2023-04-09T03:56:35;102222.19;;;-0.74;100.00
12172;BME280;6149;52.418;13.668;2023-04-09T03:59:03;102226.50;;;-0.74;100.00
12172;BME280;6149;52.418;13.668;2023-04-09T04:01:32;102223.91;;;-0.74;100.00
12172;BME280;6149;52.418;13.668;2023-04-09T04:04:00;102218.72;;;-0.76;100.00
12172;BME280;6149;52.418;13.668;2023-04-09T04:06:33;102223.88;;;-0.77;100.00
12172;BME280;6149;52.418;13.668;2023-04-09T04:09:00;102226.44;;;-0.79;100.00
12172;BME280;6149;52.418;13.668;2023-04-09T04:11:28;102230.72;;;-0.81;100.00
12172;BME280;6149;52.418;13.668;2023-04-09T04:13:58;102235.91;;;-0.82;100.00
12172;BME280;6149;52.418;13.668;2023-04-09T04:16:26;102240.22;;;-0.83;100.00
12172;BME280;6149;52.418;13.668;2023-04-09T04:18:54;102235.00;;;-0.84;100.00
12172;BME280;6149;52.418;13.668;2023-04-09T04:21:25;102252.31;;;-0.83;100.00
12172;BME280;6149;52.418;13.668;2023-04-09T04:24:00;102256.66;;;-0.82;100.00
12172;BME280;6149;52.418;13.668;2023-04-09T04:26:31;102257.50;;;-0.83;100.00
12172;BME280;6149;52.418;13.668;2023-04-09T04:28:58;102253.13;;;-0.86;100.00
12172;BME280;6149;52.418;13.668;2023-04-09T04:31:27;102260.03;;;-0.86;100.00
12172;BME280;6149;52.418;13.668;2023-04-09T04:33:55;102273.97;;;-0.83;100.00
12172;BME280;6149;52.418;13.668;2023-04-09T04:36:27;102274.94;;;-0.78;100.00
12172;BME280;6149;52.418;13.668;2023-04-09T04:39:02;102275.91;;;-0.71;100.00
12172;BME280;6149;52.418;13.668;2023-04-09T04:41:30;102276.88;;;-0.66;100.00
12172;BME280;6149;52.418;13.668;2023-04-09T04:43:58;102276.09;;;-0.62;100.00
12172;BME280;6149;52.418;13.668;2023-04-09T04:46:26;102280.56;;;-0.55;100.00
12172;BME280;6149;52.418;13.668;2023-04-09T04:48:58;102286.75;;;-0.48;100.00
12172;BME280;6149;52.418;13.668;2023-04-09T04:51:26;102280.81;;;-0.43;100.00
12172;BME280;6149;52.418;13.668;2023-04-09T04:53:55;102282.66;;;-0.36;100.00
12172;BME280;6149;52.418;13.668;2023-04-09T04:56:28;102284.47;;;-0.31;100.00
12172;BME280;6149;52.418;13.668;2023-04-09T04:58:57;102293.25;;;-0.25;100.00
12172;BME280;6149;52.418;13.668;2023-04-09T05:01:27;102289.91;;;-0.19;100.00
12172;BME280;6149;52.418;13.668;2023-04-09T05:03:55;102296.06;;;-0.14;100.00
12172;BME280;6149;52.418;13.668;2023-04-09T05:06:28;102293.56;;;-0.08;100.00
12172;BME280;6149;52.418;13.668;2023-04-09T05:08:56;102293.69;;;-0.02;100.00
12172;BME280;6149;52.418;13.668;2023-04-09T05:11:25;102295.47;;;0.04;100.00
12172;BME280;6149;52.418;13.668;2023-04-09T05:13:53;102295.59;;;0.10;100.00
12172;BME280;6149;52.418;13.668;2023-04-09T05:16:24;102288.78;;;0.16;100.00
12172;BME280;6149;52.418;13.668;2023-04-09T05:18:54;102289.75;;;0.23;100.00
12172;BME280;6149;52.418;13.668;2023-04-09T05:21:25;102290.75;;;0.29;100.00
12172;BME280;6149;52.418;13.668;2023-04-09T05:23:54;102291.72;;;0.36;100.00
12172;BME280;6149;52.418;13.668;2023-04-09T05:26:23;102295.28;;;0.44;100.00
12172;BME280;6149;52.418;13.668;2023-04-09T05:28:53;102293.63;;;0.49;100.00
12172;BME280;6149;52.418;13.668;2023-04-09T05:31:29;102291.97;;;0.54;100.00
12172;BME280;6149;52.418;13.668;2023-04-09T05:33:57;102289.47;;;0.60;100.00
12172;BME280;6149;52.418;13.668;2023-04-09T05:36:27;102293.94;;;0.68;100.00
12172;BME280;6149;52.418;13.668;2023-04-09T05:38:55;102293.19;;;0.78;100.00
12172;BME280;6149;52.418;13.668;2023-04-09T05:41:23;102287.16;;;0.82;100.00
12172;BME280;6149;52.418;13.668;2023-04-09T05:44:00;102283.78;;;0.87;100.00
12172;BME280;6149;52.418;13.668;2023-04-09T05:46:28;102276.91;;;0.92;100.00
12172;BME280;6149;52.418;13.668;2023-04-09T05:48:58;102283.06;;;0.97;100.00
12172;BME280;6149;52.418;13.668;2023-04-09T05:51:29;102279.63;;;1.02;100.00
12172;BME280;6149;52.418;13.668;2023-04-09T05:53:57;102279.69;;;1.05;100.00
12172;BME280;6149;52.418;13.668;2023-04-09T05:56:24;102279.75;;;1.11;100.00
12172;BME280;6149;52.418;13.668;2023-04-09T05:58:55;102286.75;;;1.16;100.00
12172;BME280;6149;52.418;13.668;2023-04-09T06:01:34;102282.50;;;1.23;100.00
12172;BME280;6149;52.418;13.668;2023-04-09T06:04:02;102290.41;;;1.29;100.00
12172;BME280;6149;52.418;13.668;2023-04-09T06:06:30;102282.66;;;1.35;100.00
12172;BME280;6149;52.418;13.668;2023-04-09T06:08:59;102287.97;;;1.43;100.00
12172;BME280;6149;52.418;13.668;2023-04-09T06:11:27;102282.78;;;1.49;100.00
12172;BME280;6149;52.418;13.668;2023-04-09T06:13:55;102284.56;;;1.53;100.00
12172;BME280;6149;52.418;13.668;2023-04-09T06:16:28;102280.28;;;1.56;100.00
12172;BME280;6149;52.418;13.668;2023-04-09T06:19:00;102286.41;;;1.61;100.00
12172;BME280;6149;52.418;13.668;2023-04-09T06:21:26;102289.97;;;1.68;100.00
12172;BME280;6149;52.418;13.668;2023-04-09T06:23:55;102290.06;;;1.76;100.00
12172;BME280;6149;52.418;13.668;2023-04-09T06:26:23;102285.75;;;1.81;100.00
12172;BME280;6149;52.418;13.668;2023-04-09T06:28:54;102288.44;;;1.90;100.00
12172;BME280;6149;52.418;13.668;2023-04-09T06:31:24;102285.03;;;1.98;100.00
12172;BME280;6149;52.418;13.668;2023-04-09T06:33:59;102275.56;;;2.07;100.00
12172;BME280;6149;52.418;13.668;2023-04-09T06:36:27;102284.34;;;2.16;100.00
12172;BME280;6149;52.418;13.668;2023-04-09T06:38:58;102285.25;;;2.24;100.00
12172;BME280;6149;52.418;13.668;2023-04-09T06:41:27;102292.31;;;2.34;100.00
12172;BME280;6149;52.418;13.668;2023-04-09T06:43:56;102290.63;;;2.43;100.00
12172;BME280;6149;52.418;13.668;2023-04-09T06:46:26;102289.84;;;2.51;100.00
12172;BME280;6149;52.418;13.668;2023-04-09T06:49:08;102298.59;;;2.62;100.00
12172;BME280;6149;52.418;13.668;2023-04-09T06:51:36;102286.47;;;2.72;100.00
12172;BME280;6149;52.418;13.668;2023-04-09T06:54:04;102288.28;;;2.82;100.00
12172;BME280;6149;52.418;13.668;2023-04-09T06:56:30;102294.47;;;2.95;100.00
12172;BME280;6149;52.418;13.668;2023-04-09T06:58:59;102295.38;;;3.06;100.00
12172;BME280;6149;52.418;13.668;2023-04-09T07:01:27;102307.63;;;3.18;100.00
12172;BME280;6149;52.418;13.668;2023-04-09T07:03:55;102309.44;;;3.31;100.00
12172;BME280;6149;52.418;13.668;2023-04-09T07:06:26;102293.78;;;3.46;100.00
12172;BME280;6149;52.418;13.668;2023-04-09T07:09:03;102298.19;;;3.55;100.00
12172;BME280;6149;52.418;13.668;2023-04-09T07:11:31;102291.25;;;3.69;100.00
12172;BME280;6149;52.418;13.668;2023-04-09T07:13:58;102300.84;;;3.75;100.00
12172;BME280;6149;52.418;13.668;2023-04-09T07:16:27;102299.13;;;3.83;100.00
12172;BME280;6149;52.418;13.668;2023-04-09T07:18:55;102306.09;;;3.85;100.00
12172;BME280;6149;52.418;13.668;2023-04-09T07:21:35;102303.50;;;3.94;100.00
12172;BME280;6149;52.418;13.668;2023-04-09T07:24:03;102304.38;;;4.01;100.00
12172;BME280;6149;52.418;13.668;2023-04-09T07:26:32;102302.66;;;4.06;100.00
12172;BME280;6149;52.418;13.668;2023-04-09T07:29:00;102300.91;;;4.19;100.00
12172;BME280;6149;52.418;13.668;2023-04-09T07:31:29;102300.03;;;4.26;100.00
12172;BME280;6149;52.418;13.668;2023-04-09T07:33:56;102304.41;;;4.30;100.00
12172;BME280;6149;52.418;13.668;2023-04-09T07:36:28;102303.53;;;4.34;100.00
12172;BME280;6149;52.418;13.668;2023-04-09T07:38:57;102304.41;;;4.41;100.00
12172;BME280;6149;52.418;13.668;2023-04-09T07:41:25;102307.03;;;4.45;100.00
12172;BME280;6149;52.418;13.668;2023-04-09T07:43:55;102311.34;;;4.49;100.00
12172;BME280;6149;52.418;13.668;2023-04-09T07:46:31;102312.22;;;4.56;100.00
12172;BME280;6149;52.418;13.668;2023-04-09T07:48:59;102304.38;;;4.60;100.00
12172;BME280;6149;52.418;13.668;2023-04-09T07:51:29;102307.84;;;4.68;100.00
12172;BME280;6149;52.418;13.668;2023-04-09T07:53:59;102309.56;;;4.91;100.00
12172;BME280;6149;52.418;13.668;2023-04-09T07:56:29;102301.75;;;4.80;100.00
12172;BME280;6149;52.418;13.668;2023-04-09T07:59:01;102307.84;;;4.78;100.00
12172;BME280;6149;52.418;13.668;2023-04-09T08:01:29;102307.84;;;4.81;100.00
12172;BME280;6149;52.418;13.668;2023-04-09T08:03:58;102315.69;;;4.84;100.00
12172;BME280;6149;52.418;13.668;2023-04-09T08:06:29;102310.44;;;4.88;100.00
12172;BME280;6149;52.418;13.668;2023-04-09T08:08:58;102309.53;;;4.97;100.00
12172;BME280;6149;52.418;13.668;2023-04-09T08:11:26;102316.50;;;5.06;100.00
12172;BME280;6149;52.418;13.668;2023-04-09T08:13:55;102314.75;;;5.12;100.00
12172;BME280;6149;52.418;13.668;2023-04-09T08:16:27;102319.13;;;5.15;100.00
12172;BME280;6149;52.418;13.668;2023-04-09T08:18:56;102319.03;;;5.31;100.00
12172;BME280;6149;52.418;13.668;2023-04-09T08:21:28;102321.66;;;5.31;100.00
12172;BME280;6149;52.418;13.668;2023-04-09T08:23:57;102332.13;;;5.36;100.00
12172;BME280;6149;52.418;13.668;2023-04-09T08:26:30;102335.63;;;5.43;100.00
12172;BME280;6149;52.418;13.668;2023-04-09T08:28:59;102330.34;;;5.47;100.00
12172;BME280;6149;52.418;13.668;2023-04-09T08:31:27;102325.06;;;5.56;100.00
12172;BME280;6149;52.418;13.668;2023-04-09T08:33:55;102327.66;;;5.61;100.00
12172;BME280;6149;52.418;13.668;2023-04-09T08:36:26;102324.13;;;5.66;100.00
12172;BME280;6149;52.418;13.668;2023-04-09T08:39:04;102329.31;;;5.76;100.00
12172;BME280;6149;52.418;13.668;2023-04-09T08:41:33;102321.47;;;5.72;100.00
12172;BME280;6149;52.418;13.668;2023-04-09T08:44:01;102319.69;;;5.78;100.00
12172;BME280;6149;52.418;13.668;2023-04-09T08:46:28;102333.66;;;5.86;100.00
12172;BME280;6149;52.418;13.668;2023-04-09T08:48:55;102334.47;;;5.95;100.00
12172;BME280;6149;52.418;13.668;2023-04-09T08:51:27;102324.78;;;6.05;100.00
12172;BME280;6149;52.418;13.668;2023-04-09T08:53:59;102330.84;;;6.18;100.00
12172;BME280;6149;52.418;13.668;2023-04-09T08:56:28;102318.53;;;6.24;100.00
12172;BME280;6149;52.418;13.668;2023-04-09T08:58:58;102320.28;;;6.25;100.00
12172;BME280;6149;52.418;13.668;2023-04-09T09:01:27;102324.50;;;6.42;100.00
12172;BME280;6149;52.418;13.668;2023-04-09T09:04:00;102321.00;;;6.41;100.00
12172;BME280;6149;52.418;13.668;2023-04-09T09:06:35;102325.34;;;6.47;100.00
12172;BME280;6149;52.418;13.668;2023-04-09T09:09:06;102319.19;;;6.52;100.00
12172;BME280;6149;52.418;13.668;2023-04-09T09:11:35;102321.72;;;6.61;100.00
12172;BME280;6149;52.418;13.668;2023-04-09T09:14:06;102322.56;;;6.66;100.00
12172;BME280;6149;52.418;13.668;2023-04-09T09:16:35;102314.56;;;6.74;100.00
12172;BME280;6149;52.418;13.668;2023-04-09T09:19:08;102310.88;;;6.95;100.00
12172;BME280;6149;52.418;13.668;2023-04-09T09:21:38;102314.31;;;7.03;100.00
12172;BME280;6149;52.418;13.668;2023-04-09T09:24:15;102314.03;;;7.24;100.00
12172;BME280;6149;52.418;13.668;2023-04-09T09:26:42;102315.69;;;7.34;100.00
12172;BME280;6149;52.418;13.668;2023-04-09T09:29:10;102310.41;;;7.36;100.00
12172;BME280;6149;52.418;13.668;2023-04-09T09:31:45;102309.47;;;7.40;100.00
12172;BME280;6149;52.418;13.668;2023-04-09T09:34:15;102311.16;;;7.43;100.00
12172;BME280;6149;52.418;13.668;2023-04-09T09:36:45;102307.50;;;7.56;100.00
12172;BME280;6149;52.418;13.668;2023-04-09T09:39:14;102313.50;;;7.65;100.00
12172;BME280;6149;52.418;13.668;2023-04-09T09:41:44;102313.50;;;7.65;100.00
12172;BME280;6149;52.418;13.668;2023-04-09T09:44:30;102310.78;;;7.73;100.00
12172;BME280;6149;52.418;13.668;2023-04-09T09:46:59;102313.16;;;7.90;100.00
12172;BME280;6149;52.418;13.668;2023-04-09T09:49:30;102312.19;;;7.95;100.00
12172;BME280;6149;52.418;13.668;2023-04-09T09:52:01;102309.47;;;8.01;100.00
12172;BME280;6149;52.418;13.668;2023-04-09T09:54:39;102319.72;;;8.20;100.00
12172;BME280;6149;52.418;13.668;2023-04-09T09:57:11;102314.34;;;8.27;100.00
12172;BME280;6149;52.418;13.668;2023-04-09T09:59:45;102316.94;;;8.29;100.00
12172;BME280;6149;52.418;13.668;2023-04-09T10:02:19;102315.13;;;8.35;100.00
12172;BME280;6149;52.418;13.668;2023-04-09T10:04:49;102311.34;;;8.52;100.00
12172;BME280;6149;52.418;13.668;2023-04-09T10:07:21;102309.38;;;8.63;100.00
12172;BME280;6149;52.418;13.668;2023-04-09T10:09:50;102302.94;;;8.79;100.00
12172;BME280;6149;52.418;13.668;2023-04-09T10:12:22;102308.78;;;8.93;100.00
12172;BME280;6149;52.418;13.668;2023-04-09T10:14:53;102310.16;;;9.14;100.00
12172;BME280;6149;52.418;13.668;2023-04-09T10:17:31;102304.38;;;9.38;100.00
12172;BME280;6149;52.418;13.668;2023-04-09T10:20:04;102305.44;;;9.70;98.96
12172;BME280;6149;52.418;13.668;2023-04-09T10:22:38;102310.13;;;9.59;100.00
12172;BME280;6149;52.418;13.668;2023-04-09T10:25:07;102305.38;;;9.73;98.46
12172;BME280;6149;52.418;13.668;2023-04-09T10:27:35;102304.22;;;9.86;98.83
12172;BME280;6149;52.418;13.668;2023-04-09T10:30:06;102295.16;;;9.98;98.14
12172;BME280;6149;52.418;13.668;2023-04-09T10:32:36;102289.06;;;10.31;95.69
12172;BME280;6149;52.418;13.668;2023-04-09T10:35:05;102287.41;;;10.61;94.59
12172;BME280;6149;52.418;13.668;2023-04-09T10:37:35;102289.66;;;10.77;92.70
12172;BME280;6149;52.418;13.668;2023-04-09T10:40:18;102288.63;;;10.81;91.15
12172;BME280;6149;52.418;13.668;2023-04-09T10:42:47;102298.00;;;10.94;91.33
12172;BME280;6149;52.418;13.668;2023-04-09T10:45:16;102286.38;;;10.99;91.08
12172;BME280;6149;52.418;13.668;2023-04-09T10:47:48;102284.13;;;11.15;89.35
12172;BME280;6149;52.418;13.668;2023-04-09T10:50:18;102285.56;;;11.27;88.63
12172;BME280;6149;52.418;13.668;2023-04-09T10:52:53;102273.06;;;11.32;88.64
12172;BME280;6149;52.418;13.668;2023-04-09T10:55:34;102272.06;;;11.36;88.20
12172;BME280;6149;52.418;13.668;2023-04-09T10:58:03;102275.31;;;11.46;88.50
12172;BME280;6149;52.418;13.668;2023-04-09T11:00:36;102277.44;;;11.62;85.50
12172;BME280;6149;52.418;13.668;2023-04-09T11:03:20;102270.28;;;11.66;84.59
12172;BME280;6149;52.418;13.668;2023-04-09T11:05:53;102264.50;;;11.83;84.98
12172;BME280;6149;52.418;13.668;2023-04-09T11:08:27;102261.22;;;12.01;85.19
12172;BME280;6149;52.418;13.668;2023-04-09T11:11:00;102257.63;;;12.03;84.10
12172;BME280;6149;52.418;13.668;2023-04-09T11:13:30;102262.31;;;12.22;84.07
12172;BME280;6149;52.418;13.668;2023-04-09T11:15:59;102266.97;;;12.15;82.39
12172;BME280;6149;52.418;13.668;2023-04-09T11:18:30;102256.78;;;12.01;82.12
12172;BME280;6149;52.418;13.668;2023-04-09T11:21:01;102265.41;;;12.08;84.05
12172;BME280;6149;52.418;13.668;2023-04-09T11:23:31;102259.50;;;12.26;83.42
12172;BME280;6149;52.418;13.668;2023-04-09T11:26:01;102260.41;;;12.25;82.58
12172;BME280;6149;52.418;13.668;2023-04-09T11:28:33;102261.28;;;12.26;80.49
12172;BME280;6149;52.418;13.668;2023-04-09T11:31:03;102258.81;;;12.21;80.01
12172;BME280;6149;52.418;13.668;2023-04-09T11:33:32;102250.44;;;12.07;81.60
12172;BME280;6149;52.418;13.668;2023-04-09T11:36:01;102251.41;;;12.04;81.66
12172;BME280;6149;52.418;13.668;2023-04-09T11:38:32;102257.81;;;11.97;82.69
12172;BME280;6149;52.418;13.668;2023-04-09T11:41:00;102252.50;;;11.97;82.73
12172;BME280;6149;52.418;13.668;2023-04-09T11:43:28;102252.50;;;11.97;82.29
12172;BME280;6149;52.418;13.668;2023-04-09T11:45:58;102252.13;;;12.10;83.38
12172;BME280;6149;52.418;13.668;2023-04-09T11:48:27;102249.69;;;12.28;83.98
12172;BME280;6149;52.418;13.668;2023-04-09T11:50:55;102245.22;;;12.30;81.76
12172;BME280;6149;52.418;13.668;2023-04-09T11:53:29;102250.09;;;12.43;80.65
12172;BME280;6149;52.418;13.668;2023-04-09T11:56:01;102248.88;;;12.53;82.17
12172;BME280;6149;52.418;13.668;2023-04-09T11:58:30;102254.44;;;12.45;79.41
12172;BME280;6149;52.418;13.668;2023-04-09T12:01:01;102258.41;;;12.58;81.30
12172;BME280;6149;52.418;13.668;2023-04-09T12:03:30;102255.66;;;12.35;80.34
12172;BME280;6149;52.418;13.668;2023-04-09T12:06:00;102251.22;;;12.35;81.41
12172;BME280;6149;52.418;13.668;2023-04-09T12:08:28;102253.16;;;12.30;79.79
12172;BME280;6149;52.418;13.668;2023-04-09T12:11:08;102245.72;;;12.42;79.30
12172;BME280;6149;52.418;13.668;2023-04-09T12:13:37;102250.00;;;12.46;77.86
12172;BME280;6149;52.418;13.668;2023-04-09T12:16:08;102249.63;;;12.56;78.14
12172;BME280;6149;52.418;13.668;2023-04-09T12:18:36;102250.34;;;12.61;79.51
12172;BME280;6149;52.418;13.668;2023-04-09T12:21:08;102244.09;;;12.62;78.99
12172;BME280;6149;52.418;13.668;2023-04-09T12:23:36;102244.47;;;12.77;77.42
12172;BME280;6149;52.418;13.668;2023-04-09T12:26:03;102245.44;;;12.74;77.40
12172;BME280;6149;52.418;13.668;2023-04-09T12:28:32;102247.19;;;12.75;78.18
12172;BME280;6149;52.418;13.668;2023-04-09T12:31:00;102246.69;;;12.89;77.62
12172;BME280;6149;52.418;13.668;2023-04-09T12:33:28;102244.44;;;13.01;77.00
12172;BME280;6149;52.418;13.668;2023-04-09T12:35:58;102245.66;;;13.18;76.39
12172;BME280;6149;52.418;13.668;2023-04-09T12:38:27;102239.75;;;13.33;77.25
12172;BME280;6149;52.418;13.668;2023-04-09T12:40:55;102243.06;;;13.38;76.87
12172;BME280;6149;52.418;13.668;2023-04-09T12:43:27;102239.38;;;13.42;75.87
12172;BME280;6149;52.418;13.668;2023-04-09T12:46:09;102243.66;;;13.46;75.95
12172;BME280;6149;52.418;13.668;2023-04-09T12:48:36;102232.38;;;13.39;75.80
12172;BME280;6149;52.418;13.668;2023-04-09T12:51:05;102227.66;;;13.48;77.08
12172;BME280;6149;52.418;13.668;2023-04-09T12:53:36;102221.88;;;13.60;77.05
12172;BME280;6149;52.418;13.668;2023-04-09T12:56:04;102213.72;;;13.64;75.83
12172;BME280;6149;52.418;13.668;2023-04-09T12:58:34;102218.03;;;13.67;74.80
12172;BME280;6149;52.418;13.668;2023-04-09T13:01:04;102215.13;;;13.73;73.57
12172;BME280;6149;52.418;13.668;2023-04-09T13:03:35;102220.38;;;13.75;75.39
12172;BME280;6149;52.418;13.668;2023-04-09T13:06:03;102216.06;;;13.72;73.13